sensor_id;sensor_type;location;lat;lon;timestamp;P1;durP1;ratioP1;P2;durP2;ratioP2
8488;SDS011;4281;45.772;12.852;2023-06-01T00:02:17;6.00;;;5.47;;
8488;SDS011;4281;45.772;12.852;2023-06-01T00:04:45;6.17;;;5.57;;
8488;SDS011;4281;45.772;12.852;2023-06-01T00:07:14;6.43;;;5.83;;
8488;SDS011;4281;45.772;12.852;2023-06-01T00:09:44;6.17;;;5.60;;
8488;SDS011;4281;45.772;12.852;2023-06-01T00:12:12;6.00;;;5.40;;
8488;SDS011;4281;45.772;12.852;2023-06-01T00:14:39;6.17;;;5.57;;
8488;SDS011;4281;45.772;12.852;2023-06-01T00:17:07;7.03;;;6.00;;
8488;SDS011;4281;45.772;12.852;2023-06-01T00:19:36;6.43;;;5.83;;
8488;SDS011;4281;45.772;12.852;2023-06-01T00:22:07;6.30;;;5.70;;
8488;SDS011;4281;45.772;12.852;2023-06-01T00:24:35;5.80;;;5.20;;
8488;SDS011;4281;45.772;12.852;2023-06-01T00:27:04;6.63;;;5.50;;
8488;SDS011;4281;45.772;12.852;2023-06-01T00:29:34;6.20;;;5.70;;
8488;SDS011;4281;45.772;12.852;2023-06-01T00:32:04;6.47;;;5.87;;
8488;SDS011;4281;45.772;12.852;2023-06-01T00:34:32;6.60;;;6.00;;
8488;SDS011;4281;45.772;12.852;2023-06-01T00:37:00;6.20;;;5.60;;
8488;SDS011;4281;45.772;12.852;2023-06-01T00:39:28;5.83;;;5.33;;
8488;SDS011;4281;45.772;12.852;2023-06-01T00:41:56;6.50;;;5.90;;
8488;SDS011;4281;45.772;12.852;2023-06-01T00:44:25;5.93;;;5.43;;
8488;SDS011;4281;45.772;12.852;2023-06-01T00:46:53;6.10;;;5.60;;
8488;SDS011;4281;45.772;12.852;2023-06-01T00:49:21;6.43;;;5.70;;
8488;SDS011;4281;45.772;12.852;2023-06-01T00:51:49;6.70;;;6.10;;
8488;SDS011;4281;45.772;12.852;2023-06-01T00:54:17;6.13;;;5.63;;
8488;SDS011;4281;45.772;12.852;2023-06-01T00:56:45;6.77;;;6.17;;
8488;SDS011;4281;45.772;12.852;2023-06-01T00:59:13;6.30;;;5.70;;
8488;SDS011;4281;45.772;12.852;2023-06-01T01:01:42;6.53;;;5.93;;
8488;SDS011;4281;45.772;12.852;2023-06-01T01:04:10;7.00;;;6.30;;
8488;SDS011;4281;45.772;12.852;2023-06-01T01:06:44;6.47;;;5.93;;
8488;SDS011;4281;45.772;12.852;2023-06-01T01:09:17;6.70;;;6.10;;
8488;SDS011;4281;45.772;12.852;2023-06-01T01:11:51;6.50;;;5.90;;
8488;SDS011;4281;45.772;12.852;2023-06-01T01:14:22;6.10;;;5.60;;
8488;SDS011;4281;45.772;12.852;2023-06-01T01:16:56;6.50;;;5.77;;
8488;SDS011;4281;45.772;12.852;2023-06-01T01:19:33;6.53;;;5.93;;
8488;SDS011;4281;45.772;12.852;2023-06-01T01:22:13;6.50;;;5.90;;
8488;SDS011;4281;45.772;12.852;2023-06-01T01:24:56;6.10;;;5.60;;
8488;SDS011;4281;45.772;12.852;2023-06-01T01:27:57;6.50;;;5.90;;
8488;SDS011;4281;45.772;12.852;2023-06-01T01:30:36;6.97;;;6.27;;
8488;SDS011;4281;45.772;12.852;2023-06-01T01:33:05;5.90;;;5.50;;
8488;SDS011;4281;45.772;12.852;2023-06-01T01:35:33;7.00;;;6.30;;
8488;SDS011;4281;45.772;12.852;2023-06-01T01:38:01;7.27;;;6.60;;
8488;SDS011;4281;45.772;12.852;2023-06-01T01:40:29;6.57;;;5.97;;
8488;SDS011;4281;45.772;12.852;2023-06-01T01:42:57;6.80;;;6.20;;
8488;SDS011;4281;45.772;12.852;2023-06-01T01:45:26;7.03;;;6.43;;
8488;SDS011;4281;45.772;12.852;2023-06-01T01:47:58;7.07;;;6.37;;
8488;SDS011;4281;45.772;12.852;2023-06-01T01:50:29;7.03;;;6.33;;
8488;SDS011;4281;45.772;12.852;2023-06-01T01:53:00;6.60;;;6.00;;
8488;SDS011;4281;45.772;12.852;2023-06-01T01:55:29;7.00;;;6.30;;
8488;SDS011;4281;45.772;12.852;2023-06-01T01:57:57;8.07;;;6.37;;
8488;SDS011;4281;45.772;12.852;2023-06-01T02:00:27;6.63;;;6.10;;
8488;SDS011;4281;45.772;12.852;2023-06-01T02:02:56;7.93;;;6.40;;
8488;SDS011;4281;45.772;12.852;2023-06-01T02:05:24;7.30;;;6.60;;
8488;SDS011;4281;45.772;12.852;2023-06-01T02:07:53;6.90;;;6.20;;
8488;SDS011;4281;45.772;12.852;2023-06-01T02:10:21;6.87;;;6.27;;
8488;SDS011;4281;45.772;12.852;2023-06-01T02:12:49;6.63;;;6.03;;
8488;SDS011;4281;45.772;12.852;2023-06-01T02:15:16;7.37;;;6.70;;
8488;SDS011;4281;45.772;12.852;2023-06-01T02:17:44;6.80;;;6.20;;
8488;SDS011;4281;45.772;12.852;2023-06-01T02:20:14;7.30;;;6.60;;
8488;SDS011;4281;45.772;12.852;2023-06-01T02:22:42;6.80;;;6.30;;
8488;SDS011;4281;45.772;12.852;2023-06-01T02:25:10;6.67;;;6.07;;
8488;SDS011;4281;45.772;12.852;2023-06-01T02:27:38;7.70;;;6.90;;
8488;SDS011;4281;45.772;12.852;2023-06-01T02:30:06;7.60;;;6.90;;
8488;SDS011;4281;45.772;12.852;2023-06-01T02:32:35;7.20;;;6.50;;
8488;SDS011;4281;45.772;12.852;2023-06-01T02:35:04;7.30;;;6.70;;
8488;SDS011;4281;45.772;12.852;2023-06-01T02:37:34;7.43;;;6.67;;
8488;SDS011;4281;45.772;12.852;2023-06-01T02:40:04;6.83;;;6.23;;
8488;SDS011;4281;45.772;12.852;2023-06-01T02:42:33;7.43;;;6.83;;
8488;SDS011;4281;45.772;12.852;2023-06-01T02:45:00;7.17;;;6.53;;
8488;SDS011;4281;45.772;12.852;2023-06-01T02:47:30;7.47;;;6.60;;
8488;SDS011;4281;45.772;12.852;2023-06-01T02:49:58;6.63;;;6.03;;
8488;SDS011;4281;45.772;12.852;2023-06-01T02:52:26;7.13;;;6.53;;
8488;SDS011;4281;45.772;12.852;2023-06-01T02:54:55;7.27;;;6.57;;
8488;SDS011;4281;45.772;12.852;2023-06-01T02:57:23;6.73;;;6.10;;
8488;SDS011;4281;45.772;12.852;2023-06-01T02:59:51;6.60;;;6.00;;
8488;SDS011;4281;45.772;12.852;2023-06-01T03:02:19;6.70;;;6.10;;
8488;SDS011;4281;45.772;12.852;2023-06-01T03:04:47;7.37;;;6.73;;
8488;SDS011;4281;45.772;12.852;2023-06-01T03:07:15;7.13;;;6.53;;
8488;SDS011;4281;45.772;12.852;2023-06-01T03:09:43;7.70;;;7.00;;
8488;SDS011;4281;45.772;12.852;2023-06-01T03:12:12;7.47;;;6.80;;
8488;SDS011;4281;45.772;12.852;2023-06-01T03:14:40;7.30;;;6.60;;
8488;SDS011;4281;45.772;12.852;2023-06-01T03:17:08;7.77;;;6.97;;
8488;SDS011;4281;45.772;12.852;2023-06-01T03:19:36;7.90;;;7.10;;
8488;SDS011;4281;45.772;12.852;2023-06-01T03:22:04;7.40;;;6.80;;
8488;SDS011;4281;45.772;12.852;2023-06-01T03:24:32;7.57;;;6.87;;
8488;SDS011;4281;45.772;12.852;2023-06-01T03:27:00;7.47;;;6.87;;
8488;SDS011;4281;45.772;12.852;2023-06-01T03:29:30;7.90;;;7.13;;
8488;SDS011;4281;45.772;12.852;2023-06-01T03:31:58;7.13;;;6.43;;
8488;SDS011;4281;45.772;12.852;2023-06-01T03:34:26;7.47;;;6.87;;
8488;SDS011;4281;45.772;12.852;2023-06-01T03:36:55;7.83;;;7.07;;
8488;SDS011;4281;45.772;12.852;2023-06-01T03:39:23;7.10;;;6.50;;
8488;SDS011;4281;45.772;12.852;2023-06-01T03:41:52;7.10;;;6.50;;
8488;SDS011;4281;45.772;12.852;2023-06-01T03:44:19;7.20;;;6.50;;
8488;SDS011;4281;45.772;12.852;2023-06-01T03:46:49;7.90;;;7.13;;
8488;SDS011;4281;45.772;12.852;2023-06-01T03:49:17;7.03;;;6.43;;
8488;SDS011;4281;45.772;12.852;2023-06-01T03:51:45;6.87;;;6.37;;
8488;SDS011;4281;45.772;12.852;2023-06-01T03:54:12;7.57;;;6.57;;
8488;SDS011;4281;45.772;12.852;2023-06-01T03:56:40;9.10;;;7.13;;
8488;SDS011;4281;45.772;12.852;2023-06-01T03:59:08;7.20;;;6.60;;
8488;SDS011;4281;45.772;12.852;2023-06-01T04:01:36;6.90;;;6.40;;
8488;SDS011;4281;45.772;12.852;2023-06-01T04:04:08;7.00;;;6.40;;
8488;SDS011;4281;45.772;12.852;2023-06-01T04:06:36;8.13;;;6.87;;
8488;SDS011;4281;45.772;12.852;2023-06-01T04:09:04;7.17;;;6.57;;
8488;SDS011;4281;45.772;12.852;2023-06-01T04:11:33;6.80;;;6.30;;
8488;SDS011;4281;45.772;12.852;2023-06-01T04:14:01;7.33;;;6.73;;
8488;SDS011;4281;45.772;12.852;2023-06-01T04:16:29;7.70;;;7.00;;
8488;SDS011;4281;45.772;12.852;2023-06-01T04:18:57;6.70;;;6.10;;
8488;SDS011;4281;45.772;12.852;2023-06-01T04:21:26;7.37;;;6.70;;
8488;SDS011;4281;45.772;12.852;2023-06-01T04:23:54;8.17;;;7.47;;
8488;SDS011;4281;45.772;12.852;2023-06-01T04:26:22;7.20;;;6.60;;
8488;SDS011;4281;45.772;12.852;2023-06-01T04:28:51;7.10;;;6.50;;
8488;SDS011;4281;45.772;12.852;2023-06-01T04:31:23;7.67;;;6.97;;
8488;SDS011;4281;45.772;12.852;2023-06-01T04:33:51;7.17;;;6.53;;
8488;SDS011;4281;45.772;12.852;2023-06-01T04:36:20;7.20;;;6.60;;
8488;SDS011;4281;45.772;12.852;2023-06-01T04:38:50;7.70;;;7.00;;
8488;SDS011;4281;45.772;12.852;2023-06-01T04:41:19;7.33;;;6.73;;
8488;SDS011;4281;45.772;12.852;2023-06-01T04:43:48;7.43;;;6.80;;
8488;SDS011;4281;45.772;12.852;2023-06-01T04:46:18;6.90;;;6.30;;
8488;SDS011;4281;45.772;12.852;2023-06-01T04:48:47;7.20;;;6.50;;
8488;SDS011;4281;45.772;12.852;2023-06-01T04:51:15;7.17;;;6.57;;
8488;SDS011;4281;45.772;12.852;2023-06-01T04:53:46;7.10;;;6.50;;
8488;SDS011;4281;45.772;12.852;2023-06-01T04:56:17;7.20;;;6.60;;
8488;SDS011;4281;45.772;12.852;2023-06-01T04:58:46;7.17;;;6.63;;
8488;SDS011;4281;45.772;12.852;2023-06-01T05:01:15;7.33;;;6.63;;
8488;SDS011;4281;45.772;12.852;2023-06-01T05:03:44;7.50;;;6.83;;
8488;SDS011;4281;45.772;12.852;2023-06-01T05:06:13;6.80;;;6.20;;
8488;SDS011;4281;45.772;12.852;2023-06-01T05:08:42;7.20;;;6.50;;
8488;SDS011;4281;45.772;12.852;2023-06-01T05:11:10;6.83;;;6.23;;
8488;SDS011;4281;45.772;12.852;2023-06-01T05:13:39;6.93;;;6.30;;
8488;SDS011;4281;45.772;12.852;2023-06-01T05:16:08;6.90;;;6.30;;
8488;SDS011;4281;45.772;12.852;2023-06-01T05:18:36;7.27;;;6.67;;
8488;SDS011;4281;45.772;12.852;2023-06-01T05:21:04;7.20;;;6.60;;
8488;SDS011;4281;45.772;12.852;2023-06-01T05:23:32;7.83;;;6.87;;
8488;SDS011;4281;45.772;12.852;2023-06-01T05:26:00;7.27;;;6.53;;
8488;SDS011;4281;45.772;12.852;2023-06-01T05:28:29;6.83;;;6.23;;
8488;SDS011;4281;45.772;12.852;2023-06-01T05:31:02;6.67;;;6.17;;
8488;SDS011;4281;45.772;12.852;2023-06-01T05:33:30;6.57;;;5.97;;
8488;SDS011;4281;45.772;12.852;2023-06-01T05:35:58;7.20;;;6.50;;
8488;SDS011;4281;45.772;12.852;2023-06-01T05:38:26;6.83;;;6.00;;
8488;SDS011;4281;45.772;12.852;2023-06-01T05:40:54;6.60;;;6.00;;
8488;SDS011;4281;45.772;12.852;2023-06-01T05:43:22;6.93;;;6.30;;
8488;SDS011;4281;45.772;12.852;2023-06-01T05:45:50;6.20;;;5.60;;
8488;SDS011;4281;45.772;12.852;2023-06-01T05:48:19;7.60;;;6.80;;
8488;SDS011;4281;45.772;12.852;2023-06-01T05:50:48;9.73;;;8.33;;
8488;SDS011;4281;45.772;12.852;2023-06-01T05:53:16;7.70;;;6.97;;
8488;SDS011;4281;45.772;12.852;2023-06-01T05:55:44;7.40;;;6.67;;
8488;SDS011;4281;45.772;12.852;2023-06-01T05:58:12;6.67;;;6.13;;
8488;SDS011;4281;45.772;12.852;2023-06-01T06:00:40;6.40;;;5.90;;
8488;SDS011;4281;45.772;12.852;2023-06-01T06:03:08;6.40;;;5.80;;
8488;SDS011;4281;45.772;12.852;2023-06-01T06:05:38;7.10;;;6.10;;
8488;SDS011;4281;45.772;12.852;2023-06-01T06:08:06;6.70;;;6.10;;
8488;SDS011;4281;45.772;12.852;2023-06-01T06:10:34;6.50;;;5.60;;
8488;SDS011;4281;45.772;12.852;2023-06-01T06:13:02;7.20;;;6.60;;
8488;SDS011;4281;45.772;12.852;2023-06-01T06:15:29;6.27;;;5.63;;
8488;SDS011;4281;45.772;12.852;2023-06-01T06:17:58;6.97;;;6.27;;
8488;SDS011;4281;45.772;12.852;2023-06-01T06:20:26;6.77;;;6.00;;
8488;SDS011;4281;45.772;12.852;2023-06-01T06:22:55;6.40;;;5.90;;
8488;SDS011;4281;45.772;12.852;2023-06-01T06:25:23;6.00;;;5.50;;
8488;SDS011;4281;45.772;12.852;2023-06-01T06:27:51;6.53;;;5.93;;
8488;SDS011;4281;45.772;12.852;2023-06-01T06:30:19;5.90;;;5.40;;
8488;SDS011;4281;45.772;12.852;2023-06-01T06:32:47;6.07;;;5.57;;
8488;SDS011;4281;45.772;12.852;2023-06-01T06:35:15;5.83;;;5.33;;
8488;SDS011;4281;45.772;12.852;2023-06-01T06:37:43;6.20;;;5.70;;
8488;SDS011;4281;45.772;12.852;2023-06-01T06:40:13;6.30;;;5.63;;
8488;SDS011;4281;45.772;12.852;2023-06-01T06:42:40;6.17;;;5.30;;
8488;SDS011;4281;45.772;12.852;2023-06-01T06:45:09;5.67;;;5.10;;
8488;SDS011;4281;45.772;12.852;2023-06-01T06:47:37;5.80;;;5.30;;
8488;SDS011;4281;45.772;12.852;2023-06-01T06:50:05;5.83;;;5.03;;
8488;SDS011;4281;45.772;12.852;2023-06-01T06:52:34;5.83;;;5.33;;
8488;SDS011;4281;45.772;12.852;2023-06-01T06:55:02;5.97;;;5.37;;
8488;SDS011;4281;45.772;12.852;2023-06-01T06:57:32;8.33;;;5.80;;
8488;SDS011;4281;45.772;12.852;2023-06-01T07:00:01;6.07;;;5.47;;
8488;SDS011;4281;45.772;12.852;2023-06-01T07:02:31;5.80;;;5.30;;
8488;SDS011;4281;45.772;12.852;2023-06-01T07:04:59;6.13;;;5.40;;
8488;SDS011;4281;45.772;12.852;2023-06-01T07:07:27;5.87;;;5.17;;
8488;SDS011;4281;45.772;12.852;2023-06-01T07:09:55;6.77;;;5.23;;
8488;SDS011;4281;45.772;12.852;2023-06-01T07:12:23;5.83;;;4.83;;
8488;SDS011;4281;45.772;12.852;2023-06-01T07:14:52;5.87;;;5.27;;
8488;SDS011;4281;45.772;12.852;2023-06-01T07:17:20;5.70;;;5.20;;
8488;SDS011;4281;45.772;12.852;2023-06-01T07:19:48;5.87;;;5.37;;
8488;SDS011;4281;45.772;12.852;2023-06-01T07:22:18;5.87;;;5.27;;
8488;SDS011;4281;45.772;12.852;2023-06-01T07:24:47;5.90;;;5.30;;
8488;SDS011;4281;45.772;12.852;2023-06-01T07:27:16;6.67;;;5.43;;
8488;SDS011;4281;45.772;12.852;2023-06-01T07:29:44;5.93;;;5.33;;
8488;SDS011;4281;45.772;12.852;2023-06-01T07:32:13;5.83;;;5.33;;
8488;SDS011;4281;45.772;12.852;2023-06-01T07:34:41;5.80;;;5.30;;
8488;SDS011;4281;45.772;12.852;2023-06-01T07:37:09;6.00;;;5.40;;
8488;SDS011;4281;45.772;12.852;2023-06-01T07:39:43;5.60;;;4.97;;
8488;SDS011;4281;45.772;12.852;2023-06-01T07:42:11;5.53;;;4.67;;
8488;SDS011;4281;45.772;12.852;2023-06-01T07:44:39;5.40;;;4.90;;
8488;SDS011;4281;45.772;12.852;2023-06-01T07:47:07;6.80;;;5.80;;
8488;SDS011;4281;45.772;12.852;2023-06-01T07:49:36;6.20;;;5.23;;
8488;SDS011;4281;45.772;12.852;2023-06-01T07:52:04;7.20;;;5.33;;
8488;SDS011;4281;45.772;12.852;2023-06-01T07:54:33;5.73;;;5.23;;
8488;SDS011;4281;45.772;12.852;2023-06-01T07:57:02;5.67;;;5.10;;
8488;SDS011;4281;45.772;12.852;2023-06-01T07:59:30;5.87;;;5.27;;
8488;SDS011;4281;45.772;12.852;2023-06-01T08:01:58;5.90;;;5.40;;
8488;SDS011;4281;45.772;12.852;2023-06-01T08:04:27;5.40;;;4.90;;
8488;SDS011;4281;45.772;12.852;2023-06-01T08:07:01;5.87;;;5.27;;
8488;SDS011;4281;45.772;12.852;2023-06-01T08:09:30;5.40;;;4.90;;
8488;SDS011;4281;45.772;12.852;2023-06-01T08:11:58;6.23;;;5.63;;
8488;SDS011;4281;45.772;12.852;2023-06-01T08:14:26;5.83;;;5.23;;
8488;SDS011;4281;45.772;12.852;2023-06-01T08:16:54;6.07;;;5.47;;
8488;SDS011;4281;45.772;12.852;2023-06-01T08:19:23;5.40;;;4.90;;
8488;SDS011;4281;45.772;12.852;2023-06-01T08:21:51;5.37;;;4.87;;
8488;SDS011;4281;45.772;12.852;2023-06-01T08:24:21;5.80;;;5.30;;
8488;SDS011;4281;45.772;12.852;2023-06-01T08:26:54;6.10;;;5.50;;
8488;SDS011;4281;45.772;12.852;2023-06-01T08:29:22;5.53;;;5.03;;
8488;SDS011;4281;45.772;12.852;2023-06-01T08:32:07;5.10;;;4.70;;
8488;SDS011;4281;45.772;12.852;2023-06-01T08:34:36;5.57;;;5.07;;
8488;SDS011;4281;45.772;12.852;2023-06-01T08:37:04;5.23;;;4.73;;
8488;SDS011;4281;45.772;12.852;2023-06-01T08:39:34;5.10;;;4.70;;
8488;SDS011;4281;45.772;12.852;2023-06-01T08:42:07;5.67;;;5.17;;
8488;SDS011;4281;45.772;12.852;2023-06-01T08:44:38;5.50;;;4.90;;
8488;SDS011;4281;45.772;12.852;2023-06-01T08:47:07;5.17;;;4.70;;
8488;SDS011;4281;45.772;12.852;2023-06-01T08:49:37;6.47;;;5.00;;
8488;SDS011;4281;45.772;12.852;2023-06-01T08:52:09;5.47;;;4.97;;
8488;SDS011;4281;45.772;12.852;2023-06-01T08:54:41;5.90;;;4.70;;
8488;SDS011;4281;45.772;12.852;2023-06-01T08:57:09;6.07;;;4.93;;
8488;SDS011;4281;45.772;12.852;2023-06-01T08:59:37;4.90;;;4.50;;
8488;SDS011;4281;45.772;12.852;2023-06-01T09:02:05;6.43;;;5.10;;
8488;SDS011;4281;45.772;12.852;2023-06-01T09:04:34;6.37;;;5.20;;
8488;SDS011;4281;45.772;12.852;2023-06-01T09:07:04;5.80;;;5.30;;
8488;SDS011;4281;45.772;12.852;2023-06-01T09:09:33;4.87;;;4.40;;
8488;SDS011;4281;45.772;12.852;2023-06-01T09:12:18;5.47;;;5.07;;
8488;SDS011;4281;45.772;12.852;2023-06-01T09:14:48;5.47;;;5.07;;
8488;SDS011;4281;45.772;12.852;2023-06-01T09:17:20;5.20;;;4.73;;
8488;SDS011;4281;45.772;12.852;2023-06-01T09:19:50;5.40;;;4.90;;
8488;SDS011;4281;45.772;12.852;2023-06-01T09:22:21;5.83;;;5.27;;
8488;SDS011;4281;45.772;12.852;2023-06-01T09:24:56;5.43;;;4.93;;
8488;SDS011;4281;45.772;12.852;2023-06-01T09:27:26;5.27;;;4.87;;
8488;SDS011;4281;45.772;12.852;2023-06-01T09:29:54;6.00;;;4.90;;
8488;SDS011;4281;45.772;12.852;2023-06-01T09:32:23;6.27;;;5.33;;
8488;SDS011;4281;45.772;12.852;2023-06-01T09:34:51;5.33;;;4.83;;
8488;SDS011;4281;45.772;12.852;2023-06-01T09:37:20;5.13;;;4.67;;
8488;SDS011;4281;45.772;12.852;2023-06-01T09:39:48;4.90;;;4.40;;
8488;SDS011;4281;45.772;12.852;2023-06-01T09:42:15;5.23;;;4.73;;
8488;SDS011;4281;45.772;12.852;2023-06-01T09:44:45;5.80;;;5.20;;
8488;SDS011;4281;45.772;12.852;2023-06-01T09:47:13;5.47;;;4.97;;
8488;SDS011;4281;45.772;12.852;2023-06-01T09:49:41;6.00;;;5.40;;
8488;SDS011;4281;45.772;12.852;2023-06-01T09:52:11;5.87;;;5.37;;
8488;SDS011;4281;45.772;12.852;2023-06-01T09:54:44;6.57;;;5.20;;
8488;SDS011;4281;45.772;12.852;2023-06-01T09:57:13;5.87;;;5.37;;
8488;SDS011;4281;45.772;12.852;2023-06-01T09:59:49;5.17;;;4.77;;
8488;SDS011;4281;45.772;12.852;2023-06-01T10:02:17;5.40;;;4.87;;
8488;SDS011;4281;45.772;12.852;2023-06-01T10:04:48;5.37;;;4.87;;
8488;SDS011;4281;45.772;12.852;2023-06-01T10:07:17;5.30;;;4.90;;
8488;SDS011;4281;45.772;12.852;2023-06-01T10:09:47;5.27;;;4.77;;
8488;SDS011;4281;45.772;12.852;2023-06-01T10:12:17;5.70;;;5.20;;
8488;SDS011;4281;45.772;12.852;2023-06-01T10:14:45;5.47;;;4.97;;
8488;SDS011;4281;45.772;12.852;2023-06-01T10:17:15;5.60;;;5.20;;
8488;SDS011;4281;45.772;12.852;2023-06-01T10:19:43;5.33;;;4.83;;
8488;SDS011;4281;45.772;12.852;2023-06-01T10:22:12;5.83;;;5.23;;
8488;SDS011;4281;45.772;12.852;2023-06-01T10:24:40;5.53;;;5.03;;
8488;SDS011;4281;45.772;12.852;2023-06-01T10:27:11;5.87;;;5.27;;
8488;SDS011;4281;45.772;12.852;2023-06-01T10:29:42;5.70;;;5.07;;
8488;SDS011;4281;45.772;12.852;2023-06-01T10:38:22;5.60;;;5.00;;
8488;SDS011;4281;45.772;12.852;2023-06-01T10:40:53;5.10;;;4.60;;
8488;SDS011;4281;45.772;12.852;2023-06-01T10:43:57;5.43;;;4.93;;
8488;SDS011;4281;45.772;12.852;2023-06-01T10:49:19;5.30;;;4.83;;
8488;SDS011;4281;45.772;12.852;2023-06-01T10:51:47;6.30;;;5.70;;
8488;SDS011;4281;45.772;12.852;2023-06-01T10:57:20;6.63;;;5.27;;
8488;SDS011;4281;45.772;12.852;2023-06-01T11:02:47;6.23;;;5.63;;
8488;SDS011;4281;45.772;12.852;2023-06-01T11:05:39;6.00;;;5.50;;
8488;SDS011;4281;45.772;12.852;2023-06-01T11:11:10;5.87;;;5.37;;
8488;SDS011;4281;45.772;12.852;2023-06-01T11:13:38;6.00;;;5.50;;
8488;SDS011;4281;45.772;12.852;2023-06-01T11:16:28;7.53;;;5.57;;
8488;SDS011;4281;45.772;12.852;2023-06-01T11:18:58;6.30;;;5.70;;
8488;SDS011;4281;45.772;12.852;2023-06-01T11:21:29;6.50;;;5.90;;
8488;SDS011;4281;45.772;12.852;2023-06-01T11:24:00;6.80;;;6.10;;
8488;SDS011;4281;45.772;12.852;2023-06-01T11:26:29;6.30;;;5.70;;
8488;SDS011;4281;45.772;12.852;2023-06-01T11:29:09;6.00;;;5.50;;
8488;SDS011;4281;45.772;12.852;2023-06-01T11:31:40;5.80;;;5.30;;
8488;SDS011;4281;45.772;12.852;2023-06-01T11:34:10;6.60;;;6.10;;
8488;SDS011;4281;45.772;12.852;2023-06-01T11:36:41;6.63;;;5.60;;
8488;SDS011;4281;45.772;12.852;2023-06-01T11:39:16;6.07;;;5.57;;
8488;SDS011;4281;45.772;12.852;2023-06-01T11:41:47;6.10;;;5.50;;
8488;SDS011;4281;45.772;12.852;2023-06-01T11:44:15;5.50;;;5.00;;
8488;SDS011;4281;45.772;12.852;2023-06-01T11:46:50;6.37;;;5.87;;
8488;SDS011;4281;45.772;12.852;2023-06-01T11:49:19;5.93;;;5.43;;
8488;SDS011;4281;45.772;12.852;2023-06-01T11:51:49;5.63;;;5.20;;
8488;SDS011;4281;45.772;12.852;2023-06-01T11:54:21;5.13;;;4.73;;
8488;SDS011;4281;45.772;12.852;2023-06-01T11:56:50;5.63;;;5.13;;
8488;SDS011;4281;45.772;12.852;2023-06-01T11:59:23;5.67;;;5.17;;
8488;SDS011;4281;45.772;12.852;2023-06-01T12:01:51;5.47;;;4.90;;
8488;SDS011;4281;45.772;12.852;2023-06-01T12:04:21;5.50;;;4.87;;
8488;SDS011;4281;45.772;12.852;2023-06-01T12:06:51;5.77;;;5.27;;
8488;SDS011;4281;45.772;12.852;2023-06-01T12:09:32;5.67;;;5.17;;
8488;SDS011;4281;45.772;12.852;2023-06-01T12:12:01;5.60;;;5.10;;
8488;SDS011;4281;45.772;12.852;2023-06-01T12:14:29;5.00;;;4.50;;
8488;SDS011;4281;45.772;12.852;2023-06-01T12:16:57;5.57;;;5.13;;
8488;SDS011;4281;45.772;12.852;2023-06-01T12:19:28;5.50;;;4.90;;
8488;SDS011;4281;45.772;12.852;2023-06-01T12:21:59;5.60;;;5.10;;
8488;SDS011;4281;45.772;12.852;2023-06-01T12:24:28;6.30;;;5.17;;
8488;SDS011;4281;45.772;12.852;2023-06-01T12:26:59;5.63;;;5.13;;
8488;SDS011;4281;45.772;12.852;2023-06-01T12:29:37;5.53;;;5.03;;
8488;SDS011;4281;45.772;12.852;2023-06-01T12:32:08;5.00;;;4.60;;
8488;SDS011;4281;45.772;12.852;2023-06-01T12:34:37;5.20;;;4.80;;
8488;SDS011;4281;45.772;12.852;2023-06-01T12:37:14;5.30;;;4.80;;
8488;SDS011;4281;45.772;12.852;2023-06-01T12:39:42;5.50;;;5.00;;
8488;SDS011;4281;45.772;12.852;2023-06-01T12:42:11;4.90;;;4.50;;
8488;SDS011;4281;45.772;12.852;2023-06-01T12:44:39;4.70;;;4.30;;
8488;SDS011;4281;45.772;12.852;2023-06-01T12:47:08;5.07;;;4.67;;
8488;SDS011;4281;45.772;12.852;2023-06-01T12:49:36;4.40;;;4.10;;
8488;SDS011;4281;45.772;12.852;2023-06-01T12:52:06;5.33;;;4.80;;
8488;SDS011;4281;45.772;12.852;2023-06-01T12:54:36;5.33;;;4.83;;
8488;SDS011;4281;45.772;12.852;2023-06-01T12:57:11;5.07;;;4.63;;
8488;SDS011;4281;45.772;12.852;2023-06-01T12:59:40;4.80;;;4.40;;
8488;SDS011;4281;45.772;12.852;2023-06-01T13:02:08;5.63;;;5.10;;
8488;SDS011;4281;45.772;12.852;2023-06-01T13:04:36;5.00;;;4.50;;
8488;SDS011;4281;45.772;12.852;2023-06-01T13:07:05;4.97;;;4.50;;
8488;SDS011;4281;45.772;12.852;2023-06-01T13:09:33;5.40;;;4.90;;
8488;SDS011;4281;45.772;12.852;2023-06-01T13:12:03;4.60;;;4.20;;
8488;SDS011;4281;45.772;12.852;2023-06-01T13:14:32;4.37;;;4.07;;
8488;SDS011;4281;45.772;12.852;2023-06-01T13:16:59;4.37;;;4.03;;
8488;SDS011;4281;45.772;12.852;2023-06-01T13:19:29;4.60;;;4.20;;
8488;SDS011;4281;45.772;12.852;2023-06-01T13:21:56;4.23;;;3.90;;
8488;SDS011;4281;45.772;12.852;2023-06-01T13:24:24;4.40;;;4.10;;
8488;SDS011;4281;45.772;12.852;2023-06-01T13:26:53;4.33;;;4.03;;
8488;SDS011;4281;45.772;12.852;2023-06-01T13:29:23;4.90;;;4.40;;
8488;SDS011;4281;45.772;12.852;2023-06-01T13:31:51;6.30;;;4.50;;
8488;SDS011;4281;45.772;12.852;2023-06-01T13:34:18;4.70;;;4.30;;
8488;SDS011;4281;45.772;12.852;2023-06-01T13:36:48;4.80;;;4.40;;
8488;SDS011;4281;45.772;12.852;2023-06-01T13:39:16;4.67;;;4.27;;
8488;SDS011;4281;45.772;12.852;2023-06-01T13:41:44;4.53;;;4.13;;
8488;SDS011;4281;45.772;12.852;2023-06-01T13:44:12;5.27;;;4.77;;
8488;SDS011;4281;45.772;12.852;2023-06-01T13:46:42;5.37;;;4.37;;
8488;SDS011;4281;45.772;12.852;2023-06-01T13:49:10;4.50;;;4.17;;
8488;SDS011;4281;45.772;12.852;2023-06-01T13:51:38;5.13;;;4.07;;
8488;SDS011;4281;45.772;12.852;2023-06-01T13:54:06;4.67;;;4.27;;
8488;SDS011;4281;45.772;12.852;2023-06-01T13:56:34;5.13;;;4.33;;
8488;SDS011;4281;45.772;12.852;2023-06-01T13:59:02;5.40;;;4.50;;
8488;SDS011;4281;45.772;12.852;2023-06-01T14:01:30;4.50;;;4.20;;
8488;SDS011;4281;45.772;12.852;2023-06-01T14:03:59;4.77;;;4.20;;
8488;SDS011;4281;45.772;12.852;2023-06-01T14:06:28;4.77;;;4.37;;
8488;SDS011;4281;45.772;12.852;2023-06-01T14:08:55;5.00;;;4.60;;
8488;SDS011;4281;45.772;12.852;2023-06-01T14:11:24;4.90;;;3.93;;
8488;SDS011;4281;45.772;12.852;2023-06-01T14:13:56;4.33;;;4.00;;
8488;SDS011;4281;45.772;12.852;2023-06-01T14:19:10;4.37;;;3.97;;
8488;SDS011;4281;45.772;12.852;2023-06-01T14:21:38;4.30;;;3.90;;
8488;SDS011;4281;45.772;12.852;2023-06-01T14:24:06;3.90;;;3.60;;
8488;SDS011;4281;45.772;12.852;2023-06-01T14:26:34;4.93;;;4.53;;
8488;SDS011;4281;45.772;12.852;2023-06-01T14:29:02;4.10;;;3.70;;
8488;SDS011;4281;45.772;12.852;2023-06-01T14:31:30;4.00;;;3.70;;
8488;SDS011;4281;45.772;12.852;2023-06-01T14:34:00;4.90;;;4.17;;
8488;SDS011;4281;45.772;12.852;2023-06-01T14:36:29;4.07;;;3.50;;
8488;SDS011;4281;45.772;12.852;2023-06-01T14:39:12;4.30;;;3.97;;
8488;SDS011;4281;45.772;12.852;2023-06-01T14:41:40;4.83;;;4.13;;
8488;SDS011;4281;45.772;12.852;2023-06-01T14:44:10;4.07;;;3.60;;
8488;SDS011;4281;45.772;12.852;2023-06-01T14:46:39;4.40;;;4.10;;
8488;SDS011;4281;45.772;12.852;2023-06-01T14:49:07;4.97;;;4.03;;
8488;SDS011;4281;45.772;12.852;2023-06-01T14:51:36;4.23;;;3.93;;
8488;SDS011;4281;45.772;12.852;2023-06-01T14:54:04;4.90;;;4.20;;
8488;SDS011;4281;45.772;12.852;2023-06-01T14:56:32;5.50;;;4.37;;
8488;SDS011;4281;45.772;12.852;2023-06-01T14:59:00;4.87;;;4.47;;
8488;SDS011;4281;45.772;12.852;2023-06-01T15:01:29;4.80;;;4.40;;
8488;SDS011;4281;45.772;12.852;2023-06-01T15:03:57;4.80;;;4.40;;
8488;SDS011;4281;45.772;12.852;2023-06-01T15:06:25;5.03;;;4.60;;
8488;SDS011;4281;45.772;12.852;2023-06-01T15:08:54;5.43;;;4.20;;
8488;SDS011;4281;45.772;12.852;2023-06-01T15:11:22;4.83;;;4.40;;
8488;SDS011;4281;45.772;12.852;2023-06-01T15:13:52;4.50;;;4.20;;
8488;SDS011;4281;45.772;12.852;2023-06-01T15:16:20;4.37;;;4.07;;
8488;SDS011;4281;45.772;12.852;2023-06-01T15:18:48;4.20;;;3.90;;
8488;SDS011;4281;45.772;12.852;2023-06-01T15:21:16;4.30;;;4.00;;
8488;SDS011;4281;45.772;12.852;2023-06-01T15:23:44;4.10;;;3.80;;
8488;SDS011;4281;45.772;12.852;2023-06-01T15:26:13;4.20;;;3.90;;
8488;SDS011;4281;45.772;12.852;2023-06-01T15:28:41;3.90;;;3.60;;
8488;SDS011;4281;45.772;12.852;2023-06-01T15:31:09;5.30;;;3.67;;
8488;SDS011;4281;45.772;12.852;2023-06-01T15:33:37;4.27;;;3.90;;
8488;SDS011;4281;45.772;12.852;2023-06-01T15:36:06;4.40;;;4.00;;